Time;durP1;ratioP1;P1;durP2;ratioP2;P2;SDS_P1;SDS_P2;PMS_P1;PMS_P2;Temp;Humidity;BMP_temperature;BMP_pressure;BME280_temperature;BME280_humidity;BME280_pressure;Samples;Min_cycle;Max_cycle;Signal;HPM_P1;HPM_P2
2022/04/11 00:01:01;;;;;;;;;;;7.70;99.90;;;;;;4969389;28;19986;-83
2022/04/11 00:03:26;;;;;;;;;;;7.60;99.90;;;;;;4965802;28;19914;-83
2022/04/11 00:05:52;;;;;;;;;;;7.70;99.90;;;;;;4971708;28;19914;-82
2022/04/11 00:08:19;;;;;;;;;;;7.70;99.90;;;;;;4977485;28;20288;-82
2022/04/11 00:10:46;;;;;;;;;;;7.70;99.90;;;;;;4974351;28;19922;-82
2022/04/11 00:13:11;;;;;;;;;;;7.70;99.90;;;;;;4966326;28;19949;-82
2022/04/11 00:15:39;;;;;;;;;;;7.70;99.90;;;;;;4973947;28;19991;-83
2022/04/11 00:18:05;;;;;;;;;;;7.70;99.90;;;;;;4975340;28;19964;-82
2022/04/11 00:20:30;;;;;;;;;;;7.80;99.90;;;;;;4969276;28;19914;-82
2022/04/11 00:22:56;;;;;;;;;;;7.90;99.90;;;;;;4974959;28;20371;-82
2022/04/11 00:25:22;;;;;;;;;;;7.80;99.90;;;;;;4963423;28;19915;-82
2022/04/11 00:27:48;;;;;;;;;;;7.80;99.90;;;;;;4976569;28;19949;-82
2022/04/11 00:30:13;;;;;;;;;;;7.90;99.90;;;;;;4972856;28;19914;-81
2022/04/11 00:32:40;;;;;;;;;;;7.80;99.90;;;;;;4979438;28;19929;-81
2022/04/11 00:35:06;;;;;;;;;;;7.80;99.90;;;;;;4981783;28;19928;-81
2022/04/11 00:37:32;;;;;;;;;;;7.80;99.90;;;;;;4964587;28;19914;-82
2022/04/11 00:39:57;;;;;;;;;;;7.80;99.90;;;;;;4967292;28;19918;-81
2022/04/11 00:42:28;;;;;;;;;;;7.80;99.90;;;;;;4959555;28;20325;-82
2022/04/11 00:44:53;;;;;;;;;;;7.70;99.90;;;;;;4953990;28;19918;-82
2022/04/11 00:47:19;;;;;;;;;;;7.70;99.90;;;;;;4979864;28;20025;-83
2022/04/11 00:49:45;;;;;;;;;;;7.70;99.90;;;;;;4971678;28;20383;-82
2022/04/11 00:52:11;;;;;;;;;;;7.70;99.90;;;;;;4963291;28;19962;-81
2022/04/11 00:54:37;;;;;;;;;;;7.70;99.90;;;;;;4974597;28;19918;-84
2022/04/11 00:57:03;;;;;;;;;;;7.80;99.90;;;;;;4972054;28;20016;-83
2022/04/11 00:59:28;;;;;;;;;;;7.80;99.90;;;;;;4974177;28;19969;-81
2022/04/11 01:01:55;;;;;;;;;;;7.70;99.90;;;;;;4978091;28;19918;-82
2022/04/11 01:04:23;;;;;;;;;;;7.70;99.90;;;;;;4952890;28;19968;-83
2022/04/11 01:06:50;;;;;;;;;;;7.80;99.90;;;;;;4976109;28;19911;-82
2022/04/11 01:09:15;;;;;;;;;;;7.80;99.90;;;;;;4957975;28;19929;-81
2022/04/11 01:11:43;;;;;;;;;;;7.90;99.90;;;;;;4959351;28;19922;-82
2022/04/11 01:14:09;;;;;;;;;;;7.80;99.90;;;;;;4973855;28;19922;-82
2022/04/11 01:16:34;;;;;;;;;;;7.70;99.90;;;;;;4972346;28;19923;-82
2022/04/11 01:19:00;;;;;;;;;;;7.70;99.90;;;;;;4966120;28;19942;-81
2022/04/11 01:21:26;;;;;;;;;;;7.60;99.90;;;;;;4969732;28;19929;-82
2022/04/11 01:23:52;;;;;;;;;;;7.60;99.90;;;;;;4975570;28;19922;-82
2022/04/11 01:26:18;;;;;;;;;;;7.70;99.90;;;;;;4967828;28;19914;-82
2022/04/11 01:28:43;;;;;;;;;;;7.80;99.90;;;;;;4951851;28;19918;-81
2022/04/11 01:31:09;;;;;;;;;;;7.90;99.90;;;;;;4962003;28;20355;-82
2022/04/11 01:33:35;;;;;;;;;;;7.80;99.90;;;;;;4973205;28;19915;-81
2022/04/11 01:36:03;;;;;;;;;;;7.70;99.90;;;;;;4954470;28;19957;-81
2022/04/11 01:38:29;;;;;;;;;;;7.60;99.90;;;;;;4954528;28;19937;-81
2022/04/11 01:40:55;;;;;;;;;;;7.70;99.90;;;;;;4969277;28;20001;-81
2022/04/11 01:43:22;;;;;;;;;;;7.70;99.90;;;;;;4977480;28;20004;-82
2022/04/11 01:45:48;;;;;;;;;;;7.80;99.90;;;;;;4977635;28;19914;-83
2022/04/11 01:48:13;;;;;;;;;;;7.80;99.90;;;;;;4972857;28;19914;-82
2022/04/11 01:50:45;;;;;;;;;;;7.80;99.90;;;;;;4973390;28;19977;-82
2022/04/11 01:53:11;;;;;;;;;;;7.90;99.90;;;;;;4961157;28;19930;-82
2022/04/11 01:55:37;;;;;;;;;;;7.80;99.90;;;;;;4977598;28;19926;-82
2022/04/11 01:58:03;;;;;;;;;;;7.80;99.90;;;;;;4983176;28;19973;-82
2022/04/11 02:00:29;;;;;;;;;;;7.80;99.90;;;;;;4969157;28;19914;-82
2022/04/11 02:02:55;;;;;;;;;;;7.80;99.90;;;;;;4971304;28;19929;-82
2022/04/11 02:05:20;;;;;;;;;;;7.80;99.90;;;;;;4956301;28;19980;-82
2022/04/11 02:07:47;;;;;;;;;;;7.80;99.90;;;;;;4970717;28;19914;-81
2022/04/11 02:10:12;;;;;;;;;;;7.70;99.90;;;;;;4973512;28;19914;-83
2022/04/11 02:12:41;;;;;;;;;;;7.60;99.90;;;;;;4966981;28;19914;-82
2022/04/11 02:15:07;;;;;;;;;;;7.60;99.90;;;;;;4974323;28;19914;-82
2022/04/11 02:17:33;;;;;;;;;;;7.60;99.90;;;;;;4971275;28;19925;-82
2022/04/11 02:19:58;;;;;;;;;;;7.70;99.90;;;;;;4971884;28;19902;-81
2022/04/11 02:22:24;;;;;;;;;;;7.70;99.90;;;;;;4982013;28;19923;-82
2022/04/11 02:24:50;;;;;;;;;;;7.70;99.90;;;;;;4969469;28;19918;-82
2022/04/11 02:27:15;;;;;;;;;;;7.70;99.90;;;;;;4976929;28;20252;-82
2022/04/11 02:29:41;;;;;;;;;;;7.70;99.90;;;;;;4973500;28;20348;-82
2022/04/11 02:32:06;;;;;;;;;;;7.70;99.90;;;;;;4970886;28;19915;-82
2022/04/11 02:34:32;;;;;;;;;;;7.70;99.90;;;;;;4971339;28;19918;-81
2022/04/11 02:36:58;;;;;;;;;;;7.60;99.90;;;;;;4984840;28;19922;-80
2022/04/11 02:39:23;;;;;;;;;;;7.70;99.90;;;;;;4991335;28;19914;-81
2022/04/11 02:41:49;;;;;;;;;;;7.70;99.90;;;;;;4971988;28;19918;-80
2022/04/11 02:44:14;;;;;;;;;;;7.60;99.90;;;;;;4973300;28;19919;-82
2022/04/11 02:46:42;;;;;;;;;;;7.70;99.90;;;;;;4965880;28;19922;-82
2022/04/11 02:49:08;;;;;;;;;;;7.80;99.90;;;;;;4976867;28;19914;-81
2022/04/11 02:51:34;;;;;;;;;;;7.80;99.90;;;;;;4974327;28;19960;-82
2022/04/11 02:54:02;;;;;;;;;;;7.70;99.90;;;;;;4977691;28;19914;-82
2022/04/11 02:56:27;;;;;;;;;;;7.70;99.90;;;;;;4951598;28;19914;-82
2022/04/11 02:58:53;;;;;;;;;;;7.70;99.90;;;;;;4971196;28;19921;-83
2022/04/11 03:01:19;;;;;;;;;;;7.70;99.90;;;;;;4971228;28;20019;-82
2022/04/11 03:03:45;;;;;;;;;;;7.60;99.90;;;;;;4976770;28;20008;-82
2022/04/11 03:06:10;;;;;;;;;;;7.60;99.90;;;;;;4954936;28;19914;-82
2022/04/11 03:08:36;;;;;;;;;;;7.60;99.90;;;;;;4972693;28;20021;-82
2022/04/11 03:11:02;;;;;;;;;;;7.60;99.90;;;;;;4955633;28;20198;-82
2022/04/11 03:13:29;;;;;;;;;;;7.60;99.90;;;;;;4967010;28;19915;-82
2022/04/11 03:15:55;;;;;;;;;;;7.60;99.90;;;;;;4972761;28;19994;-82
2022/04/11 03:18:20;;;;;;;;;;;7.60;99.90;;;;;;4956613;28;20072;-81
2022/04/11 03:20:47;;;;;;;;;;;7.60;99.90;;;;;;4982837;28;19918;-81
2022/04/11 03:23:14;;;;;;;;;;;7.60;99.90;;;;;;4973668;28;19922;-82
2022/04/11 03:25:40;;;;;;;;;;;7.60;99.90;;;;;;4962521;28;19921;-82
2022/04/11 03:28:05;;;;;;;;;;;7.60;99.90;;;;;;4953310;28;19914;-82
2022/04/11 03:30:31;;;;;;;;;;;7.60;99.90;;;;;;4954261;29;19915;-82
2022/04/11 03:32:56;;;;;;;;;;;7.70;99.90;;;;;;4959940;28;19914;-82
2022/04/11 03:35:23;;;;;;;;;;;7.70;99.90;;;;;;4962505;28;19918;-82
2022/04/11 03:37:48;;;;;;;;;;;7.70;99.90;;;;;;4976261;28;19961;-83
2022/04/11 03:40:14;;;;;;;;;;;7.60;99.90;;;;;;4977185;28;19914;-81
2022/04/11 03:42:43;;;;;;;;;;;7.60;99.90;;;;;;4951872;29;20299;-83
2022/04/11 03:45:11;;;;;;;;;;;7.50;99.90;;;;;;4974188;28;19920;-82
2022/04/11 03:47:37;;;;;;;;;;;7.50;99.90;;;;;;4953861;28;20005;-84
2022/04/11 03:50:03;;;;;;;;;;;7.50;99.90;;;;;;4970663;28;19956;-82
2022/04/11 03:52:29;;;;;;;;;;;7.50;99.90;;;;;;4976448;28;19921;-83
2022/04/11 03:54:54;;;;;;;;;;;7.40;99.90;;;;;;4963104;28;19914;-82
2022/04/11 03:57:23;;;;;;;;;;;7.40;99.90;;;;;;4976253;28;19933;-83
2022/04/11 03:59:49;;;;;;;;;;;7.40;99.90;;;;;;4956662;28;19922;-82
2022/04/11 04:02:14;;;;;;;;;;;7.40;99.90;;;;;;4976568;28;20364;-82
2022/04/11 04:04:40;;;;;;;;;;;7.40;99.90;;;;;;4964725;28;19937;-82
2022/04/11 04:07:05;;;;;;;;;;;7.50;99.90;;;;;;4969106;28;19925;-82
2022/04/11 04:09:31;;;;;;;;;;;7.50;99.90;;;;;;4958328;28;19925;-81
2022/04/11 04:11:56;;;;;;;;;;;7.40;99.90;;;;;;4971121;28;20267;-82
2022/04/11 04:14:22;;;;;;;;;;;7.40;99.90;;;;;;4959811;28;19934;-82
2022/04/11 04:16:49;;;;;;;;;;;7.40;99.90;;;;;;4960752;28;19921;-83
2022/04/11 04:19:14;;;;;;;;;;;7.40;99.90;;;;;;4952738;28;19914;-82
2022/04/11 04:21:40;;;;;;;;;;;7.40;99.90;;;;;;4974687;28;19922;-83
2022/04/11 04:24:06;;;;;;;;;;;7.40;99.90;;;;;;4969955;28;19961;-83
2022/04/11 04:26:31;;;;;;;;;;;7.40;99.90;;;;;;4974930;28;20383;-83
2022/04/11 04:28:57;;;;;;;;;;;7.50;99.90;;;;;;4968634;28;19914;-82
2022/04/11 04:31:24;;;;;;;;;;;7.50;99.90;;;;;;4978585;28;19960;-82
2022/04/11 04:33:50;;;;;;;;;;;7.60;99.90;;;;;;4988088;28;20371;-82
2022/04/11 04:36:16;;;;;;;;;;;7.70;99.90;;;;;;4969932;28;19915;-83
2022/04/11 04:38:41;;;;;;;;;;;7.60;99.90;;;;;;4975027;28;20342;-82
2022/04/11 04:41:07;;;;;;;;;;;7.60;99.90;;;;;;4971558;28;20451;-82
2022/04/11 04:43:32;;;;;;;;;;;7.70;99.90;;;;;;4969234;28;19940;-82
2022/04/11 04:46:01;;;;;;;;;;;7.60;99.90;;;;;;4973558;28;19960;-82
2022/04/11 04:48:26;;;;;;;;;;;7.80;99.90;;;;;;4956946;28;19958;-81
2022/04/11 04:50:52;;;;;;;;;;;7.70;99.90;;;;;;4949782;28;19914;-81
2022/04/11 04:53:17;;;;;;;;;;;7.70;99.90;;;;;;4964113;28;19925;-82
2022/04/11 04:55:43;;;;;;;;;;;7.70;99.90;;;;;;4973810;28;20012;-82
2022/04/11 04:58:08;;;;;;;;;;;7.70;99.90;;;;;;4973469;28;19915;-82
2022/04/11 05:00:34;;;;;;;;;;;7.70;99.90;;;;;;4966266;28;20001;-81
2022/04/11 05:03:00;;;;;;;;;;;7.90;99.90;;;;;;4966830;28;19922;-82
2022/04/11 05:05:25;;;;;;;;;;;7.80;99.90;;;;;;4971092;28;19918;-81
2022/04/11 05:07:51;;;;;;;;;;;7.90;99.90;;;;;;4966597;28;19918;-82
2022/04/11 05:10:17;;;;;;;;;;;7.80;99.90;;;;;;4970580;28;20372;-83
2022/04/11 05:12:44;;;;;;;;;;;7.80;99.90;;;;;;4956800;28;19914;-82
2022/04/11 05:15:10;;;;;;;;;;;7.70;99.90;;;;;;4960205;28;19914;-81
2022/04/11 05:17:35;;;;;;;;;;;7.80;99.90;;;;;;4953368;28;19991;-82
2022/04/11 05:20:02;;;;;;;;;;;7.90;99.90;;;;;;4978185;28;20017;-82
2022/04/11 05:22:28;;;;;;;;;;;7.80;99.90;;;;;;4951028;28;19944;-82
2022/04/11 05:24:53;;;;;;;;;;;7.70;99.90;;;;;;4945388;28;20384;-82
2022/04/11 05:27:19;;;;;;;;;;;7.70;99.90;;;;;;4956378;28;20274;-81
2022/04/11 05:29:44;;;;;;;;;;;7.70;99.90;;;;;;4980264;28;20275;-82
2022/04/11 05:32:10;;;;;;;;;;;7.80;99.90;;;;;;4940337;29;19931;-83
2022/04/11 05:34:36;;;;;;;;;;;7.80;99.90;;;;;;4974190;28;19933;-82
2022/04/11 05:37:02;;;;;;;;;;;7.80;99.90;;;;;;4958773;28;20028;-82
2022/04/11 05:39:27;;;;;;;;;;;7.90;99.90;;;;;;4956988;28;20335;-82
2022/04/11 05:41:54;;;;;;;;;;;7.90;99.90;;;;;;4973543;28;19918;-82
2022/04/11 05:44:19;;;;;;;;;;;7.90;99.90;;;;;;4973292;28;19922;-82
2022/04/11 05:46:46;;;;;;;;;;;7.80;99.90;;;;;;4981493;28;19921;-82
2022/04/11 05:49:11;;;;;;;;;;;7.70;99.90;;;;;;4988484;28;20438;-81
2022/04/11 05:51:37;;;;;;;;;;;7.70;99.90;;;;;;4973188;28;20137;-83
2022/04/11 05:54:02;;;;;;;;;;;7.80;99.90;;;;;;4958128;28;20010;-82
2022/04/11 05:56:28;;;;;;;;;;;7.90;99.90;;;;;;4976124;28;19918;-82
2022/04/11 05:58:53;;;;;;;;;;;7.90;99.90;;;;;;4973442;28;20017;-82
2022/04/11 06:01:19;;;;;;;;;;;8.00;99.90;;;;;;4956219;28;20355;-82
2022/04/11 06:03:44;;;;;;;;;;;8.10;99.90;;;;;;4972811;28;19924;-83
2022/04/11 06:06:10;;;;;;;;;;;8.10;99.90;;;;;;4966344;28;19953;-83
2022/04/11 06:08:38;;;;;;;;;;;8.10;99.90;;;;;;4978274;28;19942;-82
2022/04/11 06:11:21;;;;;;;;;;;8.10;99.90;;;;;;4977414;28;19910;-82
2022/04/11 06:13:47;;;;;;;;;;;8.10;99.90;;;;;;4972823;28;20324;-82
2022/04/11 06:16:12;;;;;;;;;;;8.10;99.90;;;;;;4977628;28;20253;-83
2022/04/11 06:18:38;;;;;;;;;;;8.10;99.90;;;;;;4978533;28;19914;-82
2022/04/11 06:21:04;;;;;;;;;;;8.20;99.90;;;;;;4971611;28;20021;-81
2022/04/11 06:23:29;;;;;;;;;;;8.20;99.90;;;;;;4974730;28;19930;-82
2022/04/11 06:25:55;;;;;;;;;;;8.30;99.90;;;;;;4963219;28;19915;-82
2022/04/11 06:28:20;;;;;;;;;;;8.40;99.90;;;;;;4979675;28;20002;-82
2022/04/11 06:30:46;;;;;;;;;;;8.40;99.90;;;;;;4974029;28;19914;-81
2022/04/11 06:33:12;;;;;;;;;;;8.50;99.90;;;;;;4992521;28;20337;-82
2022/04/11 06:35:37;;;;;;;;;;;8.50;99.90;;;;;;4963496;28;20256;-82
2022/04/11 06:38:03;;;;;;;;;;;8.50;99.90;;;;;;4978221;28;19914;-82
2022/04/11 06:40:28;;;;;;;;;;;8.60;99.90;;;;;;4977767;28;19921;-82
2022/04/11 06:42:54;;;;;;;;;;;8.70;99.90;;;;;;4978728;28;19922;-83
2022/04/11 06:45:19;;;;;;;;;;;8.80;99.90;;;;;;4959987;28;20292;-82
2022/04/11 06:47:47;;;;;;;;;;;8.90;99.90;;;;;;4978363;28;20252;-83
2022/04/11 06:50:13;;;;;;;;;;;8.80;99.90;;;;;;4966669;28;20308;-82
2022/04/11 06:52:39;;;;;;;;;;;8.80;99.90;;;;;;4979281;28;19914;-83
2022/04/11 06:55:08;;;;;;;;;;;9.00;99.90;;;;;;4963619;28;19919;-83
2022/04/11 06:57:34;;;;;;;;;;;9.00;99.90;;;;;;4977248;28;19918;-82
2022/04/11 07:00:01;;;;;;;;;;;9.30;99.90;;;;;;4977517;28;20014;-82
2022/04/11 07:02:26;;;;;;;;;;;9.40;99.90;;;;;;4962470;28;19952;-82
2022/04/11 07:04:52;;;;;;;;;;;9.40;99.90;;;;;;4974286;28;19914;-81
2022/04/11 07:07:19;;;;;;;;;;;9.40;99.90;;;;;;4965112;28;20225;-84
2022/04/11 07:09:45;;;;;;;;;;;9.50;99.90;;;;;;4974651;28;19918;-82
2022/04/11 07:12:11;;;;;;;;;;;9.50;99.90;;;;;;4973404;28;19914;-83
2022/04/11 07:14:37;;;;;;;;;;;9.70;99.90;;;;;;4954644;28;19936;-84
2022/04/11 07:17:03;;;;;;;;;;;9.70;99.90;;;;;;4977008;28;20237;-83
2022/04/11 07:19:28;;;;;;;;;;;9.80;99.90;;;;;;4966728;28;19925;-84
2022/04/11 07:21:54;;;;;;;;;;;9.80;99.90;;;;;;4953321;28;19929;-83
2022/04/11 07:24:19;;;;;;;;;;;10.00;99.90;;;;;;4978134;28;19914;-83
2022/04/11 07:26:45;;;;;;;;;;;9.90;99.90;;;;;;4973583;28;19921;-82
2022/04/11 07:29:10;;;;;;;;;;;10.00;99.90;;;;;;4971275;28;20085;-83
2022/04/11 07:31:36;;;;;;;;;;;10.20;99.90;;;;;;4955416;28;19914;-83
2022/04/11 07:34:02;;;;;;;;;;;10.30;99.90;;;;;;4985161;28;19939;-83
2022/04/11 07:36:30;;;;;;;;;;;10.30;99.90;;;;;;4963056;28;19920;-83
2022/04/11 07:38:56;;;;;;;;;;;10.40;99.90;;;;;;4980617;28;19914;-82
2022/04/11 07:41:22;;;;;;;;;;;10.60;99.90;;;;;;4983559;28;19925;-82
2022/04/11 07:43:48;;;;;;;;;;;10.70;99.90;;;;;;4975716;28;19918;-83
2022/04/11 07:46:13;;;;;;;;;;;10.80;99.90;;;;;;4964933;28;20667;-84
2022/04/11 07:48:39;;;;;;;;;;;10.90;99.90;;;;;;4953508;28;20521;-84
2022/04/11 07:51:05;;;;;;;;;;;11.00;99.90;;;;;;4969434;28;19989;-83
2022/04/11 07:53:30;;;;;;;;;;;11.10;99.90;;;;;;4963258;28;20013;-83
2022/04/11 07:55:56;;;;;;;;;;;11.20;99.90;;;;;;4982287;28;19921;-82
2022/04/11 07:58:22;;;;;;;;;;;11.10;99.90;;;;;;4980194;28;19925;-83
2022/04/11 08:00:51;;;;;;;;;;;11.00;99.90;;;;;;4979164;28;20012;-82
2022/04/11 08:03:17;;;;;;;;;;;11.20;99.90;;;;;;4944056;28;19946;-84
2022/04/11 08:05:42;;;;;;;;;;;11.20;99.90;;;;;;4943553;28;20046;-82
2022/04/11 08:08:08;;;;;;;;;;;11.20;99.90;;;;;;4947592;28;20407;-83
2022/04/11 08:10:34;;;;;;;;;;;11.40;99.90;;;;;;4976549;28;19914;-82
2022/04/11 08:13:00;;;;;;;;;;;11.40;99.90;;;;;;4954592;28;20019;-83
2022/04/11 08:15:27;;;;;;;;;;;11.50;99.90;;;;;;4967799;28;19925;-83
2022/04/11 08:17:54;;;;;;;;;;;11.60;99.90;;;;;;4974469;28;19922;-83
2022/04/11 08:20:20;;;;;;;;;;;11.50;99.90;;;;;;4959916;28;19934;-83
2022/04/11 08:22:45;;;;;;;;;;;11.40;99.90;;;;;;4961685;28;20045;-83
2022/04/11 08:25:11;;;;;;;;;;;11.30;99.90;;;;;;4975923;28;20404;-84
2022/04/11 08:27:37;;;;;;;;;;;11.30;99.90;;;;;;4957579;28;19962;-83
2022/04/11 08:30:03;;;;;;;;;;;11.50;99.90;;;;;;4980872;28;20356;-84
2022/04/11 08:32:48;;;;;;;;;;;11.60;99.90;;;;;;4972930;28;19918;-82
2022/04/11 08:35:14;;;;;;;;;;;11.60;99.90;;;;;;4955820;28;19914;-82
2022/04/11 08:37:42;;;;;;;;;;;11.60;99.70;;;;;;4951417;28;20029;-83
2022/04/11 08:40:12;;;;;;;;;;;11.70;99.70;;;;;;4970774;28;20003;-82
2022/04/11 08:42:38;;;;;;;;;;;11.80;99.40;;;;;;4980951;28;19915;-82
2022/04/11 08:45:04;;;;;;;;;;;11.70;98.80;;;;;;4969415;28;20115;-83
2022/04/11 08:47:30;;;;;;;;;;;11.90;99.00;;;;;;4979123;28;20036;-82
2022/04/11 08:49:55;;;;;;;;;;;12.10;98.90;;;;;;4977710;28;19914;-82
2022/04/11 08:52:21;;;;;;;;;;;12.30;98.40;;;;;;4980944;28;19914;-82
2022/04/11 08:54:46;;;;;;;;;;;12.40;97.70;;;;;;4977568;28;19923;-82
2022/04/11 08:57:12;;;;;;;;;;;12.30;97.60;;;;;;4972572;28;19918;-83
2022/04/11 08:59:38;;;;;;;;;;;12.30;97.90;;;;;;4971801;28;19918;-83
2022/04/11 09:02:12;;;;;;;;;;;12.30;98.00;;;;;;4979669;28;19918;-81
2022/04/11 09:04:51;;;;;;;;;;;12.50;97.70;;;;;;4979602;28;20006;-83
2022/04/11 09:07:17;;;;;;;;;;;12.50;97.20;;;;;;4978771;28;19910;-83
2022/04/11 09:09:43;;;;;;;;;;;12.40;97.50;;;;;;4957223;28;19915;-84
2022/04/11 09:12:10;;;;;;;;;;;12.40;97.80;;;;;;4978413;28;19918;-85
2022/04/11 09:14:37;;;;;;;;;;;12.50;98.10;;;;;;4971203;28;19957;-84
2022/04/11 09:17:03;;;;;;;;;;;12.60;98.10;;;;;;4972406;28;20240;-83
2022/04/11 09:19:29;;;;;;;;;;;12.90;97.50;;;;;;4976234;28;19986;-84
2022/04/11 09:21:54;;;;;;;;;;;13.10;96.70;;;;;;4960851;28;20013;-82
2022/04/11 09:24:22;;;;;;;;;;;13.10;96.70;;;;;;4978196;28;19914;-83
2022/04/11 09:26:49;;;;;;;;;;;13.30;96.60;;;;;;4941782;29;19919;-84
2022/04/11 09:29:17;;;;;;;;;;;13.50;96.40;;;;;;4969157;28;20322;-83
2022/04/11 09:31:43;;;;;;;;;;;13.30;96.40;;;;;;4969863;28;19914;-81
2022/04/11 09:34:17;;;;;;;;;;;13.20;96.20;;;;;;4977166;28;19937;-82
2022/04/11 09:36:47;;;;;;;;;;;13.20;96.50;;;;;;4975409;28;20063;-80
2022/04/11 09:39:13;;;;;;;;;;;13.30;96.60;;;;;;4959706;28;20390;-82
2022/04/11 09:41:46;;;;;;;;;;;13.50;96.30;;;;;;4975774;28;19918;-82
2022/04/11 09:44:21;;;;;;;;;;;13.50;95.80;;;;;;4944646;28;19918;-82
2022/04/11 09:46:47;;;;;;;;;;;13.50;95.90;;;;;;4969169;28;19914;-82
2022/04/11 09:49:15;;;;;;;;;;;13.50;96.20;;;;;;4981241;28;20283;-83
2022/04/11 09:51:59;;;;;;;;;;;13.60;96.00;;;;;;4970023;28;19922;-82
2022/04/11 09:54:25;;;;;;;;;;;13.60;95.80;;;;;;4969896;28;19910;-82
2022/04/11 09:56:51;;;;;;;;;;;13.70;95.70;;;;;;4973923;28;19914;-83
2022/04/11 09:59:18;;;;;;;;;;;13.70;96.00;;;;;;4953504;28;19925;-82
2022/04/11 10:01:44;;;;;;;;;;;13.80;95.30;;;;;;4970109;28;20013;-83
2022/04/11 10:04:10;;;;;;;;;;;13.80;95.70;;;;;;4971811;28;20020;-83
2022/04/11 10:06:38;;;;;;;;;;;14.00;95.00;;;;;;4970494;28;19953;-83
2022/04/11 10:09:04;;;;;;;;;;;14.00;94.90;;;;;;4976964;28;19934;-82
2022/04/11 10:11:30;;;;;;;;;;;14.20;94.20;;;;;;4976852;28;20006;-82
2022/04/11 10:13:56;;;;;;;;;;;14.30;93.70;;;;;;4971891;28;19968;-82
2022/04/11 10:16:22;;;;;;;;;;;14.20;94.00;;;;;;4948660;29;19958;-83
2022/04/11 10:18:48;;;;;;;;;;;14.30;93.90;;;;;;4969963;28;19914;-82
2022/04/11 10:21:14;;;;;;;;;;;14.50;94.30;;;;;;4959217;28;19961;-83
2022/04/11 10:23:55;;;;;;;;;;;14.50;94.00;;;;;;4977881;28;19953;-82
2022/04/11 10:26:22;;;;;;;;;;;14.40;93.60;;;;;;4979209;28;19915;-83
2022/04/11 10:28:48;;;;;;;;;;;14.40;93.50;;;;;;4960030;28;20284;-81
2022/04/11 10:31:15;;;;;;;;;;;14.40;93.60;;;;;;4977966;28;19959;-83
2022/04/11 10:33:50;;;;;;;;;;;14.50;93.30;;;;;;4970964;28;19914;-82
2022/04/11 10:36:35;;;;;;;;;;;14.60;93.00;;;;;;4961514;28;19914;-84
2022/04/11 10:39:16;;;;;;;;;;;14.70;93.10;;;;;;4966202;28;19966;-83
2022/04/11 10:41:54;;;;;;;;;;;14.80;92.90;;;;;;4983247;28;19932;-83
2022/04/11 10:44:32;;;;;;;;;;;15.00;92.90;;;;;;4982734;28;19923;-83
2022/04/11 10:47:18;;;;;;;;;;;15.20;92.60;;;;;;4986530;28;19926;-83
2022/04/11 10:50:23;;;;;;;;;;;15.10;92.90;;;;;;4966271;28;19955;-81
2022/04/11 10:52:41;;;;;;;;;;;15.10;92.60;;;;;;4967555;28;19990;-82
2022/04/11 10:55:11;;;;;;;;;;;15.30;92.80;;;;;;4972880;28;19918;-82
2022/04/11 10:57:38;;;;;;;;;;;15.50;92.70;;;;;;4966954;28;19914;-83
2022/04/11 11:00:07;;;;;;;;;;;15.80;92.00;;;;;;4967447;28;20048;-83
2022/04/11 11:02:59;;;;;;;;;;;15.90;92.10;;;;;;4981981;28;19929;-82
2022/04/11 11:05:28;;;;;;;;;;;15.80;92.50;;;;;;4982041;28;19915;-81
2022/04/11 11:08:21;;;;;;;;;;;15.70;92.80;;;;;;4981418;28;19949;-82
2022/04/11 11:10:51;;;;;;;;;;;15.70;92.60;;;;;;4959310;28;20212;-83
2022/04/11 11:13:30;;;;;;;;;;;15.80;92.00;;;;;;4981354;28;20004;-82
2022/04/11 11:15:59;;;;;;;;;;;16.00;91.60;;;;;;4957639;28;19914;-82
2022/04/11 11:18:26;;;;;;;;;;;16.20;92.20;;;;;;4967817;28;19929;-83
2022/04/11 11:20:55;;;;;;;;;;;16.20;91.80;;;;;;4973321;28;19914;-83
2022/04/11 11:23:23;;;;;;;;;;;16.30;90.80;;;;;;4976513;28;19964;-82
2022/04/11 11:25:49;;;;;;;;;;;16.20;91.00;;;;;;4975946;28;19913;-82
2022/04/11 11:28:15;;;;;;;;;;;16.10;91.00;;;;;;4969636;28;20000;-82
2022/04/11 11:30:42;;;;;;;;;;;16.30;91.20;;;;;;4971936;28;20008;-82
2022/04/11 11:33:11;;;;;;;;;;;16.40;90.50;;;;;;4958730;28;19914;-83
2022/04/11 11:35:49;;;;;;;;;;;16.50;90.90;;;;;;4973411;28;19915;-83
2022/04/11 11:38:15;;;;;;;;;;;16.60;91.00;;;;;;4970711;28;20004;-82
2022/04/11 11:40:51;;;;;;;;;;;16.60;90.20;;;;;;4976315;28;19945;-83
2022/04/11 11:43:16;;;;;;;;;;;16.60;90.40;;;;;;4973721;28;19929;-81
2022/04/11 11:45:45;;;;;;;;;;;16.60;89.80;;;;;;4955593;28;19922;-83
2022/04/11 11:48:27;;;;;;;;;;;16.70;90.20;;;;;;4969522;28;19966;-82
2022/04/11 11:50:55;;;;;;;;;;;16.70;89.50;;;;;;4961210;28;19914;-83
2022/04/11 11:53:21;;;;;;;;;;;16.80;89.90;;;;;;4985339;28;19916;-82
2022/04/11 11:55:50;;;;;;;;;;;16.90;89.10;;;;;;4980208;28;19945;-82
2022/04/11 11:58:19;;;;;;;;;;;16.90;88.40;;;;;;4946412;29;19978;-81
2022/04/11 12:00:48;;;;;;;;;;;16.90;88.20;;;;;;4976226;28;19981;-83
2022/04/11 12:05:59;;;;;;;;;;;17.20;86.30;;;;;;4966201;28;19969;-81
2022/04/11 12:08:30;;;;;;;;;;;17.10;85.80;;;;;;4974953;28;19915;-83
2022/04/11 12:10:56;;;;;;;;;;;17.10;86.40;;;;;;4978785;28;20286;-83
2022/04/11 12:13:29;;;;;;;;;;;17.40;85.10;;;;;;4966489;28;19915;-83
2022/04/11 12:16:15;;;;;;;;;;;17.50;84.70;;;;;;4975305;28;19914;-82
2022/04/11 12:18:48;;;;;;;;;;;17.60;84.50;;;;;;4974878;28;19957;-83
2022/04/11 12:21:13;;;;;;;;;;;17.40;83.90;;;;;;4957102;28;19918;-82
2022/04/11 12:23:47;;;;;;;;;;;17.20;85.40;;;;;;4965715;28;19916;-82
2022/04/11 12:26:12;;;;;;;;;;;17.40;85.20;;;;;;4972365;28;19965;-82
2022/04/11 12:28:38;;;;;;;;;;;17.40;83.50;;;;;;4953760;28;19914;-82
2022/04/11 12:31:05;;;;;;;;;;;17.20;84.40;;;;;;4960024;28;20016;-84
2022/04/11 12:33:36;;;;;;;;;;;17.20;85.10;;;;;;4956162;28;19915;-81
2022/04/11 12:36:05;;;;;;;;;;;17.60;84.70;;;;;;4960277;28;19914;-82
2022/04/11 12:38:39;;;;;;;;;;;17.30;84.40;;;;;;4974642;28;20017;-82
2022/04/11 12:41:05;;;;;;;;;;;17.30;84.10;;;;;;4978846;28;20028;-82
2022/04/11 12:43:30;;;;;;;;;;;17.40;82.60;;;;;;4955289;28;20003;-84
2022/04/11 12:46:06;;;;;;;;;;;17.50;83.30;;;;;;4971400;28;19989;-81
2022/04/11 12:48:51;;;;;;;;;;;17.70;82.40;;;;;;4978045;28;19914;-83
2022/04/11 12:51:18;;;;;;;;;;;17.80;82.10;;;;;;4960123;28;19914;-82
2022/04/11 12:53:44;;;;;;;;;;;17.90;82.30;;;;;;4965587;28;21864;-84
2022/04/11 12:56:10;;;;;;;;;;;18.00;82.10;;;;;;4970523;28;20676;-84
2022/04/11 12:58:41;;;;;;;;;;;17.90;81.70;;;;;;4976320;28;19914;-82
2022/04/11 13:01:07;;;;;;;;;;;17.60;82.60;;;;;;4975610;28;20340;-82
2022/04/11 13:03:35;;;;;;;;;;;17.50;83.20;;;;;;4970451;28;20033;-84
2022/04/11 13:06:02;;;;;;;;;;;17.60;83.50;;;;;;4948673;28;19911;-84
2022/04/11 13:08:27;;;;;;;;;;;17.70;83.10;;;;;;4955552;28;19937;-83
2022/04/11 13:10:55;;;;;;;;;;;17.80;83.30;;;;;;4972969;28;19922;-83
2022/04/11 13:13:21;;;;;;;;;;;17.80;83.50;;;;;;4968141;28;19923;-84
2022/04/11 13:18:31;;;;;;;;;;;17.70;83.10;;;;;;4964641;28;19917;-82
2022/04/11 13:20:56;;;;;;;;;;;17.40;83.10;;;;;;4969157;28;19918;-81
2022/04/11 13:23:22;;;;;;;;;;;17.40;83.40;;;;;;4974641;28;20425;-82
2022/04/11 13:25:47;;;;;;;;;;;17.40;83.90;;;;;;4970536;28;19922;-81
2022/04/11 13:28:13;;;;;;;;;;;17.20;84.80;;;;;;4943872;28;20296;-84
2022/04/11 13:30:38;;;;;;;;;;;17.30;84.50;;;;;;4965593;28;19914;-83
2022/04/11 13:33:04;;;;;;;;;;;17.10;84.70;;;;;;4968476;28;20113;-83
2022/04/11 13:35:30;;;;;;;;;;;17.20;85.20;;;;;;4973042;28;19918;-83
2022/04/11 13:37:55;;;;;;;;;;;17.60;84.40;;;;;;4962732;28;19918;-83
2022/04/11 13:40:21;;;;;;;;;;;18.00;84.50;;;;;;4982178;28;19917;-82
2022/04/11 13:42:47;;;;;;;;;;;18.00;84.70;;;;;;4976343;28;19933;-83
2022/04/11 13:45:13;;;;;;;;;;;18.10;83.60;;;;;;4969781;28;19922;-82
2022/04/11 13:47:39;;;;;;;;;;;17.80;83.80;;;;;;4956866;28;19922;-81
2022/04/11 13:50:06;;;;;;;;;;;17.60;84.40;;;;;;4974970;28;20009;-82
2022/04/11 13:52:31;;;;;;;;;;;17.50;85.10;;;;;;4974579;28;19925;-82
2022/04/11 13:54:57;;;;;;;;;;;17.60;85.30;;;;;;4973383;28;19914;-81
2022/04/11 13:57:23;;;;;;;;;;;17.60;85.20;;;;;;4973344;28;19977;-82
2022/04/11 13:59:48;;;;;;;;;;;17.50;86.10;;;;;;4969543;28;20252;-81
2022/04/11 14:02:14;;;;;;;;;;;17.40;87.00;;;;;;4955893;28;19942;-81
2022/04/11 14:04:40;;;;;;;;;;;17.50;87.30;;;;;;4959704;28;20496;-83
2022/04/11 14:07:05;;;;;;;;;;;17.50;87.70;;;;;;4959642;28;19925;-83
2022/04/11 14:09:31;;;;;;;;;;;17.40;88.40;;;;;;4967749;28;19918;-82
2022/04/11 14:11:59;;;;;;;;;;;17.30;88.60;;;;;;4970037;28;19918;-83
2022/04/11 14:14:25;;;;;;;;;;;17.30;88.60;;;;;;4947483;28;19914;-81
2022/04/11 14:16:50;;;;;;;;;;;17.30;89.00;;;;;;4952965;28;19918;-83
2022/04/11 14:19:16;;;;;;;;;;;17.40;89.10;;;;;;4941375;28;19932;-82
2022/04/11 14:21:42;;;;;;;;;;;17.20;89.80;;;;;;4961583;28;20031;-80
2022/04/11 14:24:07;;;;;;;;;;;17.20;89.40;;;;;;4951539;28;20176;-81
2022/04/11 14:26:33;;;;;;;;;;;17.00;90.00;;;;;;4957281;28;20029;-83
2022/04/11 14:28:59;;;;;;;;;;;17.20;89.40;;;;;;4969733;28;19952;-82